createdAt,value
2017-11-07T00:01:40.929Z,38.10
2017-11-07T00:04:08.443Z,39.07
2017-11-07T00:06:35.993Z,40.40
2017-11-07T00:09:03.464Z,39.40
2017-11-07T00:11:30.939Z,40.90
2017-11-07T00:13:58.532Z,40.57
2017-11-07T00:16:26.013Z,41.50
2017-11-07T00:18:53.497Z,40.57
2017-11-07T00:21:21.348Z,40.73
2017-11-07T00:23:48.810Z,42.97
2017-11-07T00:26:16.289Z,41.47
2017-11-07T00:28:43.756Z,42.00
2017-11-07T00:31:11.298Z,41.20
2017-11-07T00:33:38.806Z,38.90
2017-11-07T00:36:06.282Z,42.77
2017-11-07T00:38:33.793Z,40.87
2017-11-07T00:41:01.281Z,40.70
2017-11-07T00:43:28.761Z,40.90
2017-11-07T00:45:56.246Z,39.43
2017-11-07T00:48:23.755Z,40.33
2017-11-07T00:50:51.238Z,40.90
2017-11-07T00:53:18.779Z,39.77
2017-11-07T00:55:46.258Z,41.33
2017-11-07T00:58:13.762Z,41.07
2017-11-07T01:00:41.271Z,40.43
2017-11-07T01:03:08.753Z,39.47
2017-11-07T01:05:36.229Z,43.30
2017-11-07T01:08:03.764Z,44.23
2017-11-07T01:10:31.262Z,39.03
2017-11-07T01:12:58.737Z,42.30
2017-11-07T01:15:26.207Z,44.67
2017-11-07T01:17:53.729Z,41.63
2017-11-07T01:20:21.210Z,39.67
2017-11-07T01:22:48.685Z,40.40
2017-11-07T01:25:16.158Z,41.10
2017-11-07T01:27:43.617Z,41.27
2017-11-07T01:30:11.087Z,42.77
2017-11-07T01:32:38.602Z,41.67
2017-11-07T01:35:06.073Z,41.60
2017-11-07T01:37:33.551Z,42.57
2017-11-07T01:40:01.020Z,38.60
2017-11-07T01:42:28.492Z,39.60
2017-11-07T01:44:55.957Z,41.70
2017-11-07T01:47:23.458Z,40.27
2017-11-07T01:49:50.923Z,41.87
2017-11-07T01:52:18.380Z,42.27
2017-11-07T01:54:45.885Z,39.33
2017-11-07T01:57:13.382Z,40.87
2017-11-07T01:59:40.853Z,42.43
2017-11-07T02:02:08.336Z,43.20
2017-11-07T02:04:35.832Z,41.50
2017-11-07T02:07:03.298Z,43.80
2017-11-07T02:09:30.792Z,43.10
2017-11-07T02:11:58.261Z,44.70
2017-11-07T02:14:25.804Z,43.80
2017-11-07T02:16:54.188Z,42.70
2017-11-07T02:19:21.687Z,42.53
2017-11-07T02:21:49.169Z,45.40
2017-11-07T02:24:16.677Z,41.37
2017-11-07T02:26:44.403Z,45.90
2017-11-07T02:29:11.874Z,46.30
2017-11-07T02:31:39.364Z,46.10
2017-11-07T02:34:06.878Z,44.77
2017-11-07T02:36:34.393Z,45.30
2017-11-07T02:39:01.890Z,46.20
2017-11-07T02:41:29.462Z,45.10
2017-11-07T02:43:56.964Z,45.73
2017-11-07T02:46:24.498Z,46.43
2017-11-07T02:48:51.967Z,45.77
2017-11-07T02:51:19.433Z,45.17
2017-11-07T02:53:46.923Z,44.60
2017-11-07T02:56:14.386Z,42.53
2017-11-07T02:58:41.857Z,45.70
2017-11-07T03:01:09.403Z,44.70
2017-11-07T03:03:36.879Z,45.33
2017-11-07T03:06:04.348Z,44.10
2017-11-07T03:08:31.830Z,46.43
2017-11-07T03:10:59.322Z,45.70
2017-11-07T03:13:26.785Z,46.27
2017-11-07T03:15:54.315Z,46.60
2017-11-07T03:18:21.792Z,43.57
2017-11-07T03:20:49.272Z,48.90
2017-11-07T03:23:16.827Z,46.90
2017-11-07T03:25:44.299Z,49.47
2017-11-07T03:28:11.874Z,47.47
2017-11-07T03:30:39.380Z,47.50
2017-11-07T03:33:06.850Z,47.10
2017-11-07T03:35:34.330Z,46.37
2017-11-07T03:38:01.830Z,45.63
2017-11-07T03:40:29.346Z,46.97
2017-11-07T03:42:56.804Z,45.77
2017-11-07T03:45:24.295Z,45.87
2017-11-07T03:47:51.761Z,45.73
2017-11-07T03:50:19.217Z,44.40
2017-11-07T03:52:46.718Z,46.13
2017-11-07T03:55:14.184Z,48.50
2017-11-07T03:57:41.639Z,44.70
2017-11-07T04:00:09.121Z,45.50
2017-11-07T04:02:36.596Z,46.60
2017-11-07T04:05:04.084Z,46.10
2017-11-07T04:07:31.568Z,44.50
2017-11-07T04:09:59.033Z,41.30
2017-11-07T04:12:26.508Z,46.53
2017-11-07T04:14:54.015Z,46.07
2017-11-07T04:17:21.481Z,46.03
2017-11-07T04:19:48.960Z,45.90
2017-11-07T04:22:16.443Z,43.10
2017-11-07T04:24:43.924Z,44.30
2017-11-07T04:27:11.434Z,43.20
2017-11-07T04:29:38.920Z,46.00
2017-11-07T04:32:06.391Z,46.97
2017-11-07T04:34:33.883Z,47.10
2017-11-07T04:37:01.362Z,45.00
2017-11-07T04:39:28.834Z,46.00
2017-11-07T04:41:56.311Z,47.27
2017-11-07T04:44:23.813Z,44.43
2017-11-07T04:46:51.274Z,45.47
2017-11-07T04:49:18.736Z,44.37
2017-11-07T04:51:46.281Z,47.40
2017-11-07T04:54:13.821Z,43.50
2017-11-07T04:56:41.289Z,48.00
2017-11-07T04:59:08.771Z,45.40
2017-11-07T05:01:36.271Z,47.47
2017-11-07T05:04:03.756Z,46.20
2017-11-07T05:06:31.256Z,50.30
2017-11-07T05:08:58.744Z,49.10
2017-11-07T05:11:26.232Z,47.77
2017-11-07T05:13:53.734Z,47.27
2017-11-07T05:16:21.238Z,48.53
2017-11-07T05:18:49.700Z,49.30
2017-11-07T05:21:17.228Z,48.80
2017-11-07T05:23:44.693Z,49.07
2017-11-07T05:26:12.155Z,50.30
2017-11-07T05:28:39.627Z,48.53
2017-11-07T05:31:07.167Z,47.67
2017-11-07T05:33:34.634Z,51.30
2017-11-07T05:36:02.156Z,47.60
2017-11-07T05:38:29.625Z,45.80
2017-11-07T05:40:57.099Z,48.30
2017-11-07T05:43:24.594Z,47.97
2017-11-07T05:45:52.168Z,48.53
2017-11-07T05:48:19.661Z,49.47
2017-11-07T05:50:47.218Z,51.70
2017-11-07T05:53:14.694Z,51.03
2017-11-07T05:55:42.185Z,50.07
2017-11-07T05:58:09.679Z,49.30
2017-11-07T06:00:37.254Z,50.27
2017-11-07T06:03:04.762Z,51.83
2017-11-07T06:05:32.279Z,49.87
2017-11-07T06:07:59.805Z,50.10
2017-11-07T06:10:27.320Z,49.40
2017-11-07T06:12:54.817Z,52.13
2017-11-07T06:15:22.278Z,51.00
2017-11-07T06:17:50.803Z,47.47
2017-11-07T06:20:18.287Z,51.40
2017-11-07T06:22:45.763Z,51.43
2017-11-07T06:25:13.434Z,49.57
2017-11-07T06:27:41.027Z,51.30
2017-11-07T06:30:08.525Z,51.30
2017-11-07T06:32:35.991Z,51.17
2017-11-07T06:35:03.559Z,49.90
2017-11-07T06:37:31.058Z,51.17
2017-11-07T06:39:58.527Z,52.10
2017-11-07T06:42:26.010Z,53.20
2017-11-07T06:44:53.563Z,53.93
2017-11-07T06:47:21.075Z,55.57
2017-11-07T06:49:48.598Z,54.53
2017-11-07T06:52:16.072Z,53.67
2017-11-07T06:54:43.547Z,54.07
2017-11-07T06:57:11.181Z,51.93
2017-11-07T06:59:38.675Z,55.73
2017-11-07T07:02:06.162Z,50.03
2017-11-07T07:04:33.661Z,51.60
2017-11-07T07:07:01.128Z,53.30
2017-11-07T07:09:28.603Z,50.00
2017-11-07T07:11:56.149Z,51.70
2017-11-07T07:14:23.672Z,52.03
2017-11-07T07:16:51.178Z,50.30
2017-11-07T07:19:18.726Z,51.73
2017-11-07T07:21:47.427Z,54.13
2017-11-07T07:24:14.902Z,50.87
2017-11-07T07:26:42.404Z,54.33
2017-11-07T07:29:09.921Z,55.17
2017-11-07T07:31:37.410Z,55.10
2017-11-07T07:34:04.921Z,52.83
2017-11-07T07:36:32.393Z,51.87
2017-11-07T07:38:59.896Z,52.20
2017-11-07T07:41:27.444Z,51.57
2017-11-07T07:43:54.921Z,52.10
2017-11-07T07:46:22.466Z,53.20
2017-11-07T07:48:50.030Z,52.23
2017-11-07T07:51:17.522Z,49.80
2017-11-07T07:53:45.031Z,53.87
2017-11-07T07:56:12.701Z,49.07
2017-11-07T07:58:40.182Z,51.67
2017-11-07T08:01:07.722Z,52.73
2017-11-07T08:03:35.232Z,53.77
2017-11-07T08:06:03.006Z,52.87
2017-11-07T08:08:30.526Z,52.90
2017-11-07T08:10:58.106Z,53.40
2017-11-07T08:13:25.599Z,51.63
2017-11-07T08:15:53.181Z,52.13
2017-11-07T08:18:20.685Z,52.33
2017-11-07T08:20:48.195Z,51.90
2017-11-07T08:23:15.720Z,52.10
2017-11-07T08:25:43.217Z,55.07
2017-11-07T08:28:10.677Z,54.67
2017-11-07T08:30:38.277Z,52.80
2017-11-07T08:33:05.787Z,50.10
2017-11-07T08:35:33.249Z,53.87
2017-11-07T08:38:00.753Z,47.83
2017-11-07T08:40:28.259Z,51.20
2017-11-07T08:42:55.751Z,50.90
2017-11-07T08:45:23.242Z,50.83
2017-11-07T08:47:50.756Z,51.43
2017-11-07T08:50:18.262Z,53.77
2017-11-07T08:52:45.739Z,54.63
2017-11-07T08:55:13.255Z,53.30
2017-11-07T08:57:40.726Z,54.00
2017-11-07T09:00:08.217Z,51.53
2017-11-07T09:02:35.703Z,50.93
2017-11-07T09:05:03.180Z,47.27
2017-11-07T09:07:30.675Z,54.70
2017-11-07T09:09:58.171Z,53.00
2017-11-07T09:12:25.660Z,53.80
2017-11-07T09:14:53.142Z,52.63
2017-11-07T09:17:20.640Z,50.40
2017-11-07T09:19:48.123Z,54.60
2017-11-07T09:22:15.625Z,54.47
2017-11-07T09:24:43.190Z,47.90
2017-11-07T09:27:10.678Z,49.97
2017-11-07T09:29:38.174Z,54.93
2017-11-07T09:32:05.662Z,51.20
2017-11-07T09:34:34.513Z,51.40
2017-11-07T09:37:02.012Z,51.03
2017-11-07T09:39:29.504Z,52.10
2017-11-07T09:41:56.975Z,53.60
2017-11-07T09:44:24.536Z,53.17
2017-11-07T09:46:52.185Z,56.90
2017-11-07T09:49:19.682Z,53.87
2017-11-07T09:51:47.177Z,52.20
2017-11-07T09:54:14.697Z,48.50
2017-11-07T09:56:42.170Z,53.10
2017-11-07T09:59:09.644Z,50.23
2017-11-07T10:01:37.138Z,51.37
2017-11-07T10:04:04.623Z,48.30
2017-11-07T10:06:32.095Z,48.87
2017-11-07T10:08:59.592Z,46.87
2017-11-07T10:11:27.125Z,49.50
2017-11-07T10:13:54.598Z,50.40
2017-11-07T10:16:22.082Z,48.83
2017-11-07T10:18:49.545Z,49.87
2017-11-07T10:21:17.079Z,48.13
2017-11-07T10:23:44.652Z,46.20
2017-11-07T10:26:12.149Z,45.30
2017-11-07T10:28:39.602Z,47.60
2017-11-07T10:31:07.082Z,44.50
2017-11-07T10:33:34.561Z,44.03
2017-11-07T10:36:02.032Z,43.07
2017-11-07T10:38:29.548Z,39.80
2017-11-07T10:40:57.009Z,41.37
2017-11-07T10:43:24.666Z,44.13
2017-11-07T10:45:52.148Z,41.47
2017-11-07T10:48:19.645Z,41.07
2017-11-07T10:50:47.134Z,39.60
2017-11-07T10:53:14.654Z,39.70
2017-11-07T10:55:42.186Z,44.40
2017-11-07T10:58:09.669Z,41.87
2017-11-07T11:00:37.216Z,42.80
2017-11-07T11:03:04.714Z,41.80
2017-11-07T11:05:32.191Z,35.67
2017-11-07T11:07:59.715Z,38.63
2017-11-07T11:10:27.180Z,37.77
2017-11-07T11:12:54.645Z,37.23
2017-11-07T11:15:22.156Z,36.30
2017-11-07T11:17:49.623Z,38.37
2017-11-07T11:20:17.110Z,38.20
2017-11-07T11:22:44.590Z,38.37
2017-11-07T11:25:12.064Z,38.13
2017-11-07T11:27:39.547Z,36.83
2017-11-07T11:30:07.036Z,38.37
2017-11-07T11:32:34.501Z,41.77
2017-11-07T11:35:02.001Z,44.20
2017-11-07T11:37:29.508Z,43.13
2017-11-07T11:39:57.005Z,42.83
2017-11-07T11:42:24.478Z,41.40
2017-11-07T11:44:52.006Z,40.67
2017-11-07T11:47:19.479Z,37.37
2017-11-07T11:49:46.957Z,34.43
2017-11-07T11:52:14.454Z,36.13
2017-11-07T11:54:41.968Z,37.20
2017-11-07T11:57:09.445Z,37.47
2017-11-07T11:59:36.949Z,38.60
2017-11-07T12:02:04.449Z,37.07
2017-11-07T12:04:31.928Z,36.43
2017-11-07T12:06:59.427Z,37.80
2017-11-07T12:09:26.889Z,34.53
2017-11-07T12:11:54.391Z,34.80
2017-11-07T12:14:21.888Z,36.73
2017-11-07T12:16:49.357Z,37.93
2017-11-07T12:21:50.484Z,35.60
2017-11-07T12:24:17.959Z,38.13
2017-11-07T12:26:45.427Z,36.17
2017-11-07T12:29:13.002Z,40.50
2017-11-07T12:31:40.482Z,37.33
2017-11-07T12:34:07.968Z,39.77
2017-11-07T12:36:35.464Z,41.27
2017-11-07T12:39:02.976Z,39.60
2017-11-07T12:41:30.484Z,39.37
2017-11-07T12:43:57.998Z,39.10
2017-11-07T12:46:25.473Z,36.97
2017-11-07T12:48:52.952Z,37.93
2017-11-07T12:51:32.111Z,38.20
2017-11-07T12:53:59.606Z,35.40
2017-11-07T12:56:27.077Z,37.90
2017-11-07T12:58:54.553Z,38.77
2017-11-07T13:01:22.034Z,36.77
2017-11-07T13:03:49.518Z,35.93
2017-11-07T13:06:17.007Z,34.60
2017-11-07T13:08:44.465Z,36.17
2017-11-07T13:11:11.950Z,34.80
2017-11-07T13:13:39.470Z,37.30
2017-11-07T13:16:06.935Z,36.93
2017-11-07T13:18:34.407Z,33.07
2017-11-07T13:21:01.909Z,35.10
2017-11-07T13:23:29.466Z,36.73
2017-11-07T13:25:56.937Z,34.87
2017-11-07T13:28:24.514Z,34.93
2017-11-07T13:30:52.001Z,35.23
2017-11-07T13:33:19.825Z,33.27
2017-11-07T13:35:47.313Z,33.53
2017-11-07T13:38:14.761Z,36.73
2017-11-07T13:40:42.226Z,36.93
2017-11-07T13:43:09.701Z,34.33
2017-11-07T13:45:37.165Z,32.87
2017-11-07T13:48:04.639Z,35.10
2017-11-07T13:50:32.118Z,37.53
2017-11-07T13:52:59.607Z,34.40
2017-11-07T13:55:27.092Z,34.03
2017-11-07T13:57:54.562Z,35.57
2017-11-07T14:00:22.063Z,34.93
2017-11-07T14:02:49.531Z,38.33
2017-11-07T14:05:17.066Z,34.80
2017-11-07T14:07:44.541Z,36.03
2017-11-07T14:10:12.085Z,34.43
2017-11-07T14:12:39.575Z,35.47
2017-11-07T14:15:07.043Z,38.87
2017-11-07T14:17:34.500Z,36.93
2017-11-07T14:20:01.999Z,34.20
2017-11-07T14:22:30.229Z,34.70
2017-11-07T14:24:57.718Z,32.20
2017-11-07T14:27:25.217Z,35.67
2017-11-07T14:29:52.710Z,34.70
2017-11-07T14:32:20.296Z,33.50
2017-11-07T14:34:47.807Z,33.53
2017-11-07T14:37:15.310Z,40.37
2017-11-07T14:39:42.825Z,36.70
2017-11-07T14:42:10.346Z,35.97
2017-11-07T14:44:37.869Z,39.97
2017-11-07T14:47:05.931Z,37.10
2017-11-07T14:49:33.457Z,38.57
2017-11-07T14:52:00.949Z,35.63
2017-11-07T14:54:28.571Z,40.83
2017-11-07T14:56:56.154Z,38.83
2017-11-07T14:59:23.657Z,38.60
2017-11-07T15:01:51.154Z,37.27
2017-11-07T15:04:18.669Z,35.60
2017-11-07T15:06:46.205Z,37.47
2017-11-07T15:09:13.699Z,37.40
2017-11-07T15:11:41.271Z,33.60
2017-11-07T15:14:08.767Z,36.57
2017-11-07T15:16:36.307Z,32.57
2017-11-07T15:19:03.928Z,34.97
2017-11-07T15:21:31.436Z,37.23
2017-11-07T15:23:58.941Z,35.80
2017-11-07T15:26:26.470Z,36.07
2017-11-07T15:28:54.003Z,37.30
2017-11-07T15:31:21.539Z,39.20
2017-11-07T15:33:49.119Z,38.20
2017-11-07T15:36:16.621Z,39.27
2017-11-07T15:38:44.122Z,38.20
2017-11-07T15:41:11.677Z,40.00
2017-11-07T15:43:39.184Z,39.80
2017-11-07T15:46:06.691Z,39.83
2017-11-07T15:48:34.239Z,38.27
2017-11-07T15:51:01.754Z,39.60
2017-11-07T15:53:29.249Z,37.70
2017-11-07T15:55:56.773Z,39.33
2017-11-07T15:58:24.339Z,39.50
2017-11-07T16:00:51.846Z,41.17
2017-11-07T16:03:19.384Z,40.40
2017-11-07T16:05:46.915Z,39.23
2017-11-07T16:08:14.474Z,39.73
2017-11-07T16:10:41.992Z,37.37
2017-11-07T16:13:09.505Z,37.60
2017-11-07T16:15:37.021Z,36.03
2017-11-07T16:18:04.569Z,38.67
2017-11-07T16:20:32.101Z,35.43
2017-11-07T16:22:59.631Z,39.47
2017-11-07T16:25:27.143Z,39.20
2017-11-07T16:27:54.676Z,37.87
2017-11-07T16:30:22.208Z,39.90
2017-11-07T16:32:49.766Z,38.60
2017-11-07T16:35:17.285Z,38.20
2017-11-07T16:37:44.852Z,39.90
2017-11-07T16:40:12.377Z,37.73
2017-11-07T16:42:39.883Z,39.87
2017-11-07T16:45:07.426Z,39.07
2017-11-07T16:47:34.958Z,39.30
2017-11-07T16:50:02.468Z,40.50
2017-11-07T16:52:30.580Z,36.60
2017-11-07T16:54:58.178Z,40.70
2017-11-07T16:57:25.699Z,38.93
2017-11-07T16:59:53.191Z,38.60
2017-11-07T17:02:20.736Z,38.87
2017-11-07T17:04:48.239Z,37.50
2017-11-07T17:07:15.862Z,38.17
2017-11-07T17:09:43.374Z,40.87
2017-11-07T17:12:10.899Z,37.23
2017-11-07T17:14:38.466Z,39.30
2017-11-07T17:17:06.044Z,36.90
2017-11-07T17:19:33.563Z,38.00
2017-11-07T17:22:01.162Z,37.70
2017-11-07T17:24:28.693Z,38.20
2017-11-07T17:26:56.428Z,40.10
2017-11-07T17:29:23.986Z,36.90
2017-11-07T17:31:51.525Z,36.37
2017-11-07T17:34:19.015Z,37.97
2017-11-07T17:36:46.522Z,39.53
2017-11-07T17:39:14.110Z,40.27
2017-11-07T17:41:41.936Z,36.60
2017-11-07T17:44:09.850Z,38.20
2017-11-07T17:46:37.510Z,33.77
2017-11-07T17:49:05.401Z,32.73
2017-11-07T17:51:33.530Z,35.27
2017-11-07T17:54:01.284Z,36.77
2017-11-07T17:56:29.413Z,35.93
2017-11-07T17:58:57.545Z,34.40
2017-11-07T18:01:25.865Z,38.73
2017-11-07T18:03:54.196Z,38.40
2017-11-07T18:06:22.475Z,38.60
2017-11-07T18:08:50.880Z,38.03
2017-11-07T18:11:19.355Z,38.13
2017-11-07T18:13:48.083Z,36.20
2017-11-07T18:16:16.931Z,34.87
2017-11-07T18:18:45.315Z,34.90
2017-11-07T18:21:13.725Z,40.10
2017-11-07T18:23:42.531Z,32.60
2017-11-07T18:26:11.459Z,38.73
2017-11-07T18:28:40.230Z,39.60
2017-11-07T18:31:09.160Z,35.97
2017-11-07T18:33:37.960Z,33.90
2017-11-07T18:36:07.276Z,32.77
2017-11-07T18:38:36.975Z,35.20
2017-11-07T18:41:07.012Z,35.33
2017-11-07T18:43:37.364Z,36.80
2017-11-07T18:46:09.508Z,38.40
2017-11-07T18:48:39.773Z,35.63
2017-11-07T18:51:09.905Z,35.90
2017-11-07T18:53:40.118Z,36.90
2017-11-07T18:56:10.258Z,37.80
2017-11-07T18:58:40.571Z,37.80
2017-11-07T19:01:11.604Z,37.63
2017-11-07T19:03:42.087Z,37.20
2017-11-07T19:06:12.986Z,37.50
2017-11-07T19:08:44.159Z,39.97
2017-11-07T19:11:15.293Z,39.27
2017-11-07T19:13:47.036Z,38.67
2017-11-07T19:16:18.412Z,34.63
2017-11-07T19:18:51.438Z,38.17
2017-11-07T19:21:22.783Z,36.20
2017-11-07T19:23:54.098Z,35.13
2017-11-07T19:26:25.964Z,37.40
2017-11-07T19:28:57.667Z,37.27
2017-11-07T19:31:29.099Z,35.80
2017-11-07T19:34:00.332Z,35.90
2017-11-07T19:36:31.846Z,37.00
2017-11-07T19:39:08.579Z,32.93
2017-11-07T19:41:40.256Z,37.83
2017-11-07T19:44:12.456Z,37.20
2017-11-07T19:46:44.597Z,36.13
2017-11-07T19:49:16.787Z,35.77
2017-11-07T19:51:48.973Z,34.00
2017-11-07T19:54:20.871Z,33.33
2017-11-07T19:56:52.589Z,34.13
2017-11-07T19:59:24.845Z,34.93
2017-11-07T20:01:56.644Z,34.63
2017-11-07T20:04:28.304Z,34.17
2017-11-07T20:07:00.259Z,36.53
2017-11-07T20:09:32.401Z,32.50
2017-11-07T20:12:04.584Z,32.20
2017-11-07T20:14:36.469Z,34.03
2017-11-07T20:17:09.088Z,34.83
2017-11-07T20:19:40.937Z,33.83
2017-11-07T20:22:13.236Z,34.57
2017-11-07T20:24:45.051Z,35.00
2017-11-07T20:27:17.942Z,34.30
2017-11-07T20:29:50.120Z,34.37
2017-11-07T20:32:22.237Z,35.50
2017-11-07T20:34:54.369Z,32.83
2017-11-07T20:37:27.190Z,32.40
2017-11-07T20:39:59.152Z,33.27
2017-11-07T20:42:30.976Z,35.70
2017-11-07T20:45:03.134Z,33.27
2017-11-07T20:47:35.260Z,37.33
2017-11-07T20:50:07.384Z,34.00
2017-11-07T20:52:39.283Z,38.10
2017-11-07T20:55:11.180Z,37.50
2017-11-07T20:57:43.351Z,36.33
2017-11-07T21:00:15.072Z,35.47
2017-11-07T21:02:46.891Z,38.07
2017-11-07T21:05:18.859Z,34.70
2017-11-07T21:07:50.206Z,34.67
2017-11-07T21:10:22.011Z,35.73
2017-11-07T21:12:53.659Z,35.07
2017-11-07T21:15:26.626Z,38.30
2017-11-07T21:17:58.168Z,35.87
2017-11-07T21:20:29.291Z,36.80
2017-11-07T21:22:59.798Z,36.27
2017-11-07T21:25:30.616Z,38.70
2017-11-07T21:28:01.562Z,37.33
2017-11-07T21:30:32.277Z,36.47
2017-11-07T21:33:02.512Z,39.67
2017-11-07T21:35:38.311Z,38.70
2017-11-07T21:38:07.926Z,42.00
2017-11-07T21:40:37.890Z,40.87
2017-11-07T21:43:08.391Z,41.00
2017-11-07T21:45:37.606Z,43.33
2017-11-07T21:48:06.893Z,42.00
2017-11-07T21:50:35.944Z,43.70
2017-11-07T21:53:04.717Z,44.30
2017-11-07T21:55:33.361Z,45.17
2017-11-07T21:58:02.020Z,41.80
2017-11-07T22:00:33.029Z,44.10
2017-11-07T22:03:01.543Z,42.47
2017-11-07T22:05:29.737Z,43.97
2017-11-07T22:07:57.808Z,43.80
2017-11-07T22:10:25.670Z,43.60
2017-11-07T22:12:53.550Z,47.47
2017-11-07T22:15:21.252Z,44.60
2017-11-07T22:17:54.560Z,46.30
2017-11-07T22:20:23.174Z,48.27
2017-11-07T22:22:56.797Z,42.87
2017-11-07T22:25:24.342Z,48.20
2017-11-07T22:27:51.887Z,50.03
2017-11-07T22:30:19.435Z,48.73
2017-11-07T22:32:46.952Z,47.50
2017-11-07T22:35:14.475Z,48.77
2017-11-07T22:37:42.037Z,46.17
2017-11-07T22:40:09.548Z,48.93
2017-11-07T22:42:37.068Z,51.07
2017-11-07T22:45:08.217Z,49.07
2017-11-07T22:47:35.804Z,52.27
2017-11-07T22:50:03.346Z,51.13
2017-11-07T22:52:30.941Z,45.27
2017-11-07T22:54:58.492Z,48.43
2017-11-07T22:57:26.016Z,49.90
2017-11-07T22:59:53.530Z,48.20
2017-11-07T23:02:21.088Z,46.80
2017-11-07T23:04:48.588Z,47.47
2017-11-07T23:07:16.131Z,46.87
2017-11-07T23:09:43.705Z,44.67
2017-11-07T23:12:11.238Z,44.50
2017-11-07T23:14:38.777Z,43.60
2017-11-07T23:17:06.292Z,42.40
2017-11-07T23:19:33.777Z,44.70
2017-11-07T23:22:01.519Z,41.20
2017-11-07T23:24:29.059Z,38.10
2017-11-07T23:26:56.605Z,38.83
2017-11-07T23:29:24.130Z,35.67
2017-11-07T23:31:51.657Z,34.63
2017-11-07T23:34:19.173Z,35.37
2017-11-07T23:36:46.696Z,37.10
2017-11-07T23:39:14.236Z,36.33
2017-11-07T23:41:41.754Z,34.37
2017-11-07T23:44:09.300Z,33.27
2017-11-07T23:46:36.808Z,33.53
2017-11-07T23:49:04.320Z,35.97
2017-11-07T23:51:33.598Z,35.40
2017-11-07T23:54:01.101Z,34.00
2017-11-07T23:56:28.612Z,33.30
2017-11-07T23:58:56.194Z,33.73
